createdAt,value
2022-12-19T00:01:35.247Z,-7.55
2022-12-19T00:04:08.372Z,-7.75
2022-12-19T00:06:37.288Z,-7.63
2022-12-19T00:09:04.826Z,-7.45
2022-12-19T00:11:32.382Z,-7.71
2022-12-19T00:13:59.812Z,-7.69
2022-12-19T00:16:29.496Z,-7.50
2022-12-19T00:18:59.085Z,-7.95
2022-12-19T00:21:29.228Z,-7.91
2022-12-19T00:23:56.163Z,-7.86
2022-12-19T00:26:26.998Z,-7.72
2022-12-19T00:28:57.080Z,-7.68
2022-12-19T00:31:24.590Z,-7.75
2022-12-19T00:33:51.237Z,-7.66
2022-12-19T00:36:23.663Z,-7.72
2022-12-19T00:38:51.762Z,-7.83
2022-12-19T00:41:35.659Z,-7.58
2022-12-19T00:44:07.646Z,-7.28
2022-12-19T00:46:35.331Z,-7.48
2022-12-19T00:49:02.931Z,-7.15
2022-12-19T00:51:33.757Z,-7.12
2022-12-19T00:54:00.412Z,-7.19
2022-12-19T00:56:31.688Z,-7.11
2022-12-19T00:59:02.603Z,-7.24
2022-12-19T01:01:38.414Z,-7.16
2022-12-19T01:06:53.338Z,-7.13
2022-12-19T01:09:21.761Z,-7.21
2022-12-19T01:12:06.662Z,-7.08
2022-12-19T01:14:33.226Z,-7.14
2022-12-19T01:16:59.691Z,-6.99
2022-12-19T01:19:27.283Z,-7.15
2022-12-19T01:21:53.859Z,-6.93
2022-12-19T01:24:21.011Z,-6.97
2022-12-19T01:26:47.492Z,-7.24
2022-12-19T01:29:14.053Z,-7.02
2022-12-19T01:31:40.572Z,-7.02
2022-12-19T01:34:07.155Z,-6.91
2022-12-19T01:36:34.957Z,-6.81
2022-12-19T01:39:06.473Z,-6.92
2022-12-19T01:41:33.117Z,-7.13
2022-12-19T01:44:05.880Z,-7.24
2022-12-19T01:46:39.948Z,-7.30
2022-12-19T01:49:15.368Z,-7.38
2022-12-19T01:51:47.091Z,-7.03
2022-12-19T01:54:21.947Z,-6.98
2022-12-19T01:56:55.782Z,-7.15
2022-12-19T01:59:32.339Z,-7.21
2022-12-19T02:02:08.111Z,-7.22
2022-12-19T02:04:35.117Z,-7.02
2022-12-19T02:07:24.015Z,-7.09
2022-12-19T02:09:57.192Z,-7.25
2022-12-19T02:12:26.083Z,-7.18
2022-12-19T02:14:56.168Z,-7.18
2022-12-19T02:17:42.746Z,-7.19
2022-12-19T02:20:49.245Z,-6.86
2022-12-19T02:23:28.873Z,-7.21
2022-12-19T02:26:04.380Z,-7.00
2022-12-19T02:28:33.640Z,-7.33
2022-12-19T02:31:26.406Z,-7.03
2022-12-19T02:34:18.959Z,-7.32
2022-12-19T02:37:02.166Z,-7.14
2022-12-19T02:39:41.216Z,-7.35
2022-12-19T02:42:11.421Z,-7.10
2022-12-19T02:44:51.655Z,-7.46
2022-12-19T02:47:20.251Z,-7.43
2022-12-19T02:49:46.828Z,-7.27
2022-12-19T02:52:19.148Z,-7.42
2022-12-19T02:54:48.036Z,-7.57
2022-12-19T02:57:28.511Z,-7.33
2022-12-19T02:59:55.262Z,-7.23
2022-12-19T03:02:57.898Z,-7.11
2022-12-19T03:05:33.818Z,-7.21
2022-12-19T03:08:06.122Z,-7.22
2022-12-19T03:10:53.342Z,-7.31
2022-12-19T03:13:37.527Z,-7.25
2022-12-19T03:16:07.167Z,-7.16
2022-12-19T03:18:34.132Z,-7.28
2022-12-19T03:21:37.847Z,-7.71
2022-12-19T03:24:06.892Z,-7.51
2022-12-19T03:26:48.288Z,-7.51
2022-12-19T03:29:17.868Z,-7.42
2022-12-19T03:31:46.411Z,-7.33
2022-12-19T03:34:24.866Z,-7.22
2022-12-19T03:36:59.605Z,-7.56
2022-12-19T03:39:27.037Z,-7.28
2022-12-19T03:42:13.401Z,-7.20
2022-12-19T03:44:42.721Z,-7.26
2022-12-19T03:47:22.485Z,-7.39
2022-12-19T03:49:49.743Z,-7.18
2022-12-19T03:52:26.787Z,-7.09
2022-12-19T03:55:06.244Z,-7.37
2022-12-19T03:58:05.687Z,-7.23
2022-12-19T04:00:36.512Z,-7.43
2022-12-19T04:03:04.568Z,-7.22
2022-12-19T04:05:32.452Z,-7.31
2022-12-19T04:08:04.767Z,-7.27
2022-12-19T04:10:38.313Z,-7.20
2022-12-19T04:13:12.072Z,-7.19
2022-12-19T04:16:13.323Z,-7.03
2022-12-19T04:18:45.312Z,-7.05
2022-12-19T04:21:19.038Z,-7.43
2022-12-19T04:23:52.788Z,-7.28
2022-12-19T04:26:21.358Z,-7.46
2022-12-19T04:28:56.327Z,-7.42
2022-12-19T04:31:23.463Z,-7.11
2022-12-19T04:33:50.051Z,-7.06
2022-12-19T04:36:16.638Z,-7.29
2022-12-19T04:38:43.138Z,-7.34
2022-12-19T04:41:09.628Z,-7.00
2022-12-19T04:43:36.160Z,-7.14
2022-12-19T04:46:02.838Z,-7.08
2022-12-19T04:48:29.371Z,-7.17
2022-12-19T04:50:56.433Z,-7.12
2022-12-19T04:53:24.511Z,-7.48
2022-12-19T04:55:50.984Z,-7.66
2022-12-19T04:58:21.909Z,-7.02
2022-12-19T05:00:48.609Z,-7.24
2022-12-19T05:03:15.078Z,-7.41
2022-12-19T05:05:41.573Z,-7.01
2022-12-19T05:08:08.766Z,-7.24
2022-12-19T05:10:36.543Z,-7.29
2022-12-19T05:13:03.092Z,-7.18
2022-12-19T05:15:29.656Z,-7.34
2022-12-19T05:17:57.711Z,-7.26
2022-12-19T05:20:24.305Z,-7.27
2022-12-19T05:22:50.782Z,-7.65
2022-12-19T05:25:17.214Z,-7.29
2022-12-19T05:27:43.680Z,-7.11
2022-12-19T05:30:10.723Z,-7.41
2022-12-19T05:32:37.246Z,-7.20
2022-12-19T05:35:04.234Z,-7.42
2022-12-19T05:37:30.655Z,-7.26
2022-12-19T05:39:57.121Z,-7.27
2022-12-19T05:42:26.231Z,-7.43
2022-12-19T05:44:52.653Z,-7.25
2022-12-19T05:47:22.201Z,-7.03
2022-12-19T05:49:48.633Z,-7.08
2022-12-19T05:52:15.043Z,-7.11
2022-12-19T05:54:41.456Z,-7.15
2022-12-19T05:57:07.904Z,-7.07
2022-12-19T05:59:34.370Z,-7.16
2022-12-19T06:02:00.909Z,-7.00
2022-12-19T06:04:27.500Z,-7.30
2022-12-19T06:06:54.335Z,-6.98
2022-12-19T06:09:20.865Z,-7.12
2022-12-19T06:11:47.999Z,-6.90
2022-12-19T06:14:14.501Z,-6.98
2022-12-19T06:16:41.062Z,-6.75
2022-12-19T06:19:07.544Z,-6.95
2022-12-19T06:21:34.104Z,-6.83
2022-12-19T06:24:00.540Z,-6.89
2022-12-19T06:26:27.324Z,-6.53
2022-12-19T06:28:55.591Z,-6.88
2022-12-19T06:31:24.827Z,-7.00
2022-12-19T06:33:52.080Z,-6.91
2022-12-19T06:36:25.679Z,-6.84
2022-12-19T06:38:53.658Z,-7.06
2022-12-19T06:41:39.042Z,-7.04
2022-12-19T06:44:07.795Z,-6.82
2022-12-19T06:46:35.402Z,-6.57
2022-12-19T06:49:01.894Z,-6.66
2022-12-19T06:51:28.808Z,-6.78
2022-12-19T06:53:55.556Z,-6.38
2022-12-19T06:56:22.665Z,-6.64
2022-12-19T06:58:49.833Z,-6.32
2022-12-19T07:01:21.113Z,-6.44
2022-12-19T07:04:11.620Z,-6.69
2022-12-19T07:06:51.639Z,-6.32
2022-12-19T07:09:33.544Z,-6.40
2022-12-19T07:12:01.711Z,-6.60
2022-12-19T07:14:40.018Z,-6.42
2022-12-19T07:17:12.904Z,-6.21
2022-12-19T07:19:58.846Z,-6.31
2022-12-19T07:23:57.453Z,-6.28
2022-12-19T07:26:31.193Z,-5.94
2022-12-19T07:31:46.710Z,-6.07
2022-12-19T07:34:22.206Z,-6.17
2022-12-19T07:37:01.165Z,-6.04
2022-12-19T07:39:49.600Z,-6.16
2022-12-19T07:42:32.818Z,-5.76
2022-12-19T07:45:08.885Z,-6.01
2022-12-19T07:47:41.162Z,-5.88
2022-12-19T07:50:17.715Z,-5.80
2022-12-19T07:52:44.690Z,-5.80
2022-12-19T07:55:12.765Z,-5.58
2022-12-19T07:57:41.138Z,-6.03
2022-12-19T08:00:09.420Z,-5.52
2022-12-19T08:02:36.653Z,-5.89
2022-12-19T08:05:07.061Z,-5.60
2022-12-19T08:07:34.354Z,-5.80
2022-12-19T08:10:01.538Z,-5.63
2022-12-19T08:12:28.327Z,-5.55
2022-12-19T08:14:58.768Z,-5.55
2022-12-19T08:17:26.583Z,-5.53
2022-12-19T08:19:53.714Z,-5.36
2022-12-19T08:22:20.648Z,-5.31
2022-12-19T08:24:47.675Z,-5.39
2022-12-19T08:27:16.999Z,-5.47
2022-12-19T08:29:43.988Z,-5.42
2022-12-19T08:32:18.775Z,-5.37
2022-12-19T08:34:58.019Z,-5.09
2022-12-19T08:37:33.849Z,-4.89
2022-12-19T08:40:02.915Z,-5.04
2022-12-19T08:42:35.450Z,-4.96
2022-12-19T08:45:02.765Z,-4.91
2022-12-19T08:47:29.741Z,-4.97
2022-12-19T08:49:57.023Z,-5.05
2022-12-19T08:52:23.968Z,-5.13
2022-12-19T08:54:50.920Z,-4.89
2022-12-19T08:57:17.707Z,-4.97
2022-12-19T08:59:44.873Z,-4.91
2022-12-19T09:02:18.715Z,-4.95
2022-12-19T09:05:59.258Z,-4.66
2022-12-19T09:07:32.538Z,-4.79
2022-12-19T09:10:08.166Z,-4.85
2022-12-19T09:12:35.520Z,-4.83
2022-12-19T09:15:02.314Z,-4.51
2022-12-19T09:17:29.210Z,-4.50
2022-12-19T09:19:56.784Z,-4.66
2022-12-19T09:22:29.848Z,-4.69
2022-12-19T09:25:08.063Z,-4.60
2022-12-19T09:27:53.708Z,-4.40
2022-12-19T09:30:39.396Z,-4.23
2022-12-19T09:33:07.474Z,-4.34
2022-12-19T09:35:36.088Z,-4.44
2022-12-19T09:38:03.776Z,-4.35
2022-12-19T09:40:43.742Z,-4.29
2022-12-19T09:43:33.994Z,-4.26
2022-12-19T09:46:33.235Z,-4.19
2022-12-19T09:49:10.528Z,-4.25
2022-12-19T09:52:06.355Z,-4.02
2022-12-19T09:54:41.793Z,-3.93
2022-12-19T09:57:16.861Z,-3.99
2022-12-19T10:00:02.642Z,-3.85
2022-12-19T10:02:49.173Z,-4.06
2022-12-19T10:05:49.612Z,-3.61
2022-12-19T10:09:51.332Z,-3.90
2022-12-19T10:12:40.546Z,-3.69
2022-12-19T10:14:53.622Z,-3.47
2022-12-19T10:17:28.395Z,-3.54
2022-12-19T10:20:25.617Z,-3.47
2022-12-19T10:22:58.282Z,-3.80
2022-12-19T10:25:40.283Z,-3.30
2022-12-19T10:28:19.728Z,-3.67
2022-12-19T10:31:09.888Z,-3.17
2022-12-19T10:34:15.141Z,-3.25
2022-12-19T10:39:46.060Z,-3.09
2022-12-19T10:42:28.490Z,-2.84
2022-12-19T10:45:11.278Z,-2.94
2022-12-19T10:47:38.712Z,-3.08
2022-12-19T10:50:09.724Z,-3.11
2022-12-19T10:53:11.909Z,-2.89
2022-12-19T10:56:13.314Z,-2.85
2022-12-19T10:59:03.163Z,-2.88
2022-12-19T11:01:41.773Z,-2.91
2022-12-19T11:04:38.735Z,-2.63
2022-12-19T11:07:27.947Z,-2.82
2022-12-19T11:11:00.714Z,-2.64
2022-12-19T11:17:11.732Z,-2.85
2022-12-19T11:17:59.354Z,-2.65
2022-12-19T11:29:37.272Z,-2.60
2022-12-19T11:29:41.501Z,-2.55
2022-12-19T11:30:35.541Z,-2.42
2022-12-19T11:30:35.803Z,-2.31
2022-12-19T11:33:28.340Z,-2.37
2022-12-19T11:36:09.237Z,-2.33
2022-12-19T11:38:54.495Z,-2.47
2022-12-19T11:42:02.051Z,-2.44
2022-12-19T11:45:07.703Z,-2.41
2022-12-19T11:47:49.844Z,-2.54
2022-12-19T11:50:28.283Z,-2.49
2022-12-19T11:53:30.987Z,-2.56
2022-12-19T11:56:22.094Z,-2.21
2022-12-19T11:58:53.397Z,-2.24
2022-12-19T12:01:41.950Z,-2.30
2022-12-19T12:04:39.328Z,-2.09
2022-12-19T12:07:16.923Z,-2.16
2022-12-19T12:15:38.332Z,-2.26
2022-12-19T12:23:05.699Z,-2.22
2022-12-19T12:31:16.425Z,-2.15
2022-12-19T12:31:18.382Z,-2.14
2022-12-19T12:31:23.832Z,-2.20
2022-12-19T12:31:49.895Z,-2.23
2022-12-19T12:32:00.574Z,-2.19
2022-12-19T12:35:56.478Z,-2.25
2022-12-19T12:38:54.277Z,-2.23
2022-12-19T12:41:54.456Z,-2.24
2022-12-19T12:44:33.164Z,-2.26
2022-12-19T12:47:17.043Z,-2.38
2022-12-19T12:49:51.844Z,-2.17
2022-12-19T12:52:23.888Z,-2.33
2022-12-19T12:54:53.204Z,-2.19
2022-12-19T12:57:28.953Z,-2.20
2022-12-19T13:00:15.369Z,-2.14
2022-12-19T13:02:45.935Z,-2.19
2022-12-19T13:05:32.130Z,-2.19
2022-12-19T13:07:59.007Z,-2.07
2022-12-19T13:10:31.036Z,-2.29
2022-12-19T13:13:01.779Z,-2.28
2022-12-19T13:18:32.899Z,-2.24
2022-12-19T13:21:01.607Z,-2.16
2022-12-19T13:23:37.080Z,-2.20
2022-12-19T13:26:04.724Z,-2.05
2022-12-19T13:28:31.661Z,-2.13
2022-12-19T13:31:18.600Z,-2.14
2022-12-19T13:33:55.628Z,-2.04
2022-12-19T13:39:57.595Z,-2.24
2022-12-19T13:39:58.100Z,-2.11
2022-12-19T13:43:09.571Z,-2.02
2022-12-19T13:45:39.909Z,-2.02
2022-12-19T13:48:16.419Z,-1.91
2022-12-19T13:50:50.079Z,-2.03
2022-12-19T13:53:19.168Z,-2.00
2022-12-19T13:55:46.175Z,-1.98
2022-12-19T13:58:29.285Z,-1.96
2022-12-19T14:01:01.394Z,-1.99
2022-12-19T14:03:39.039Z,-1.90
2022-12-19T14:06:28.240Z,-1.98
2022-12-19T14:11:23.189Z,-1.93
2022-12-19T14:13:50.931Z,-1.94
2022-12-19T14:15:40.880Z,-1.84
2022-12-19T14:18:42.426Z,-1.83
2022-12-19T14:22:10.608Z,-1.80
2022-12-19T14:24:22.450Z,-1.70
2022-12-19T14:28:25.853Z,-1.88
2022-12-19T14:30:31.084Z,-1.81
2022-12-19T14:33:43.933Z,-1.68
2022-12-19T14:36:07.091Z,-1.60
2022-12-19T14:39:24.039Z,-1.64
2022-12-19T14:41:42.193Z,-1.62
2022-12-19T14:52:34.525Z,-1.55
2022-12-19T14:54:05.507Z,-1.56
2022-12-19T14:54:16.484Z,-1.52
2022-12-19T14:54:40.844Z,-1.61
2022-12-19T14:56:09.697Z,-1.40
2022-12-19T14:58:53.835Z,-1.54
2022-12-19T15:01:28.499Z,-1.51
2022-12-19T15:04:53.369Z,-1.41
2022-12-19T15:07:11.818Z,-1.35
2022-12-19T15:11:08.133Z,-1.39
2022-12-19T15:14:55.304Z,-1.28
2022-12-19T15:16:26.957Z,-1.41
2022-12-19T15:19:00.530Z,-1.24
2022-12-19T15:21:29.502Z,-1.45
2022-12-19T15:23:56.158Z,-0.98
2022-12-19T15:26:34.591Z,-1.23
2022-12-19T15:29:02.961Z,-1.21
2022-12-19T15:31:38.552Z,-1.12
2022-12-19T15:34:48.211Z,-1.07
2022-12-19T15:37:14.624Z,-0.93
2022-12-19T15:39:41.682Z,-1.02
2022-12-19T15:42:21.555Z,-0.95
2022-12-19T15:44:49.034Z,-1.11
2022-12-19T15:47:28.431Z,-0.95
2022-12-19T15:49:55.140Z,-0.94
2022-12-19T15:52:22.003Z,-0.90
2022-12-19T15:54:50.565Z,-0.97
2022-12-19T15:57:36.537Z,-0.90
2022-12-19T16:00:12.910Z,-0.81
2022-12-19T16:05:29.099Z,-0.70
2022-12-19T16:07:58.853Z,-0.83
2022-12-19T16:10:26.323Z,-0.81
2022-12-19T16:12:55.649Z,-0.84
2022-12-19T16:15:27.671Z,-0.88
2022-12-19T16:17:55.537Z,-0.77
2022-12-19T16:20:28.354Z,-0.72
2022-12-19T16:22:57.903Z,-0.59
2022-12-19T16:25:31.404Z,-0.72
2022-12-19T16:27:59.452Z,-0.67
2022-12-19T16:30:31.548Z,-0.58
2022-12-19T16:32:58.494Z,-0.63
2022-12-19T16:35:55.089Z,-0.57
2022-12-19T16:38:14.461Z,-0.52
2022-12-19T16:40:41.608Z,-0.60
2022-12-19T16:43:15.736Z,-0.57
2022-12-19T16:45:43.198Z,-0.52
2022-12-19T16:48:21.984Z,-0.51
2022-12-19T16:50:49.655Z,-0.55
2022-12-19T16:53:17.213Z,-0.43
2022-12-19T16:55:45.623Z,-0.41
2022-12-19T16:58:18.916Z,-0.52
2022-12-19T17:00:46.033Z,-0.51
2022-12-19T17:03:41.159Z,-0.29
2022-12-19T17:06:26.690Z,-0.37
2022-12-19T17:08:53.312Z,-0.40
2022-12-19T17:11:26.001Z,-0.27
2022-12-19T17:14:08.532Z,-0.35
2022-12-19T17:16:35.331Z,-0.47
2022-12-19T17:19:02.753Z,-0.47
2022-12-19T17:21:32.585Z,-0.35
2022-12-19T17:23:59.126Z,-0.30
2022-12-19T17:26:25.681Z,-0.30
2022-12-19T17:28:53.141Z,-0.27
2022-12-19T17:31:27.925Z,-0.20
2022-12-19T17:33:57.670Z,-0.29
2022-12-19T17:36:32.655Z,-0.32
2022-12-19T17:39:01.622Z,-0.30
2022-12-19T17:41:28.175Z,-0.13
2022-12-19T17:43:54.668Z,-0.19
2022-12-19T17:46:24.022Z,-0.19
2022-12-19T17:48:52.810Z,-0.12
2022-12-19T17:51:21.435Z,-0.09
2022-12-19T17:53:49.774Z,-0.02
2022-12-19T17:56:18.193Z,-0.21
2022-12-19T17:58:44.731Z,-0.10
2022-12-19T18:01:23.523Z,-0.01
2022-12-19T18:03:52.266Z,-0.09
2022-12-19T18:06:19.091Z,0.04
2022-12-19T18:08:45.580Z,-0.03
2022-12-19T18:11:24.526Z,0.08
2022-12-19T18:13:51.732Z,-0.01
2022-12-19T18:16:22.327Z,-0.05
2022-12-19T18:18:49.062Z,0.20
2022-12-19T18:21:18.863Z,0.09
2022-12-19T18:23:45.644Z,-0.02
2022-12-19T18:26:13.081Z,0.05
2022-12-19T18:28:40.398Z,0.19
2022-12-19T18:31:13.109Z,0.01
2022-12-19T18:33:41.986Z,0.11
2022-12-19T18:36:17.120Z,0.28
2022-12-19T18:38:43.609Z,0.23
2022-12-19T18:41:11.918Z,0.28
2022-12-19T18:43:38.345Z,0.38
2022-12-19T18:46:05.784Z,0.41
2022-12-19T18:48:36.866Z,0.37
2022-12-19T18:51:04.922Z,0.19
2022-12-19T18:53:35.207Z,0.42
2022-12-19T18:56:04.480Z,0.25
2022-12-19T18:58:31.304Z,0.41
2022-12-19T19:01:00.401Z,0.41
2022-12-19T19:03:33.678Z,0.45
2022-12-19T19:06:00.971Z,0.45
2022-12-19T19:08:30.775Z,0.57
2022-12-19T19:10:57.507Z,0.52
2022-12-19T19:13:25.704Z,0.51
2022-12-19T19:15:53.673Z,0.50
2022-12-19T19:18:30.001Z,0.73
2022-12-19T19:21:01.007Z,0.73
2022-12-19T19:23:33.451Z,0.55
2022-12-19T19:26:00.067Z,0.65
2022-12-19T19:28:26.526Z,0.65
2022-12-19T19:30:54.626Z,0.62
2022-12-19T19:33:25.782Z,0.68
2022-12-19T19:35:58.665Z,0.76
2022-12-19T19:38:25.193Z,0.62
2022-12-19T19:40:51.660Z,0.69
2022-12-19T19:43:18.176Z,0.55
2022-12-19T19:45:44.718Z,0.55
2022-12-19T19:48:11.166Z,0.68
2022-12-19T19:50:38.213Z,0.64
2022-12-19T19:53:05.163Z,0.51
2022-12-19T19:55:31.722Z,0.49
2022-12-19T19:57:58.345Z,0.48
2022-12-19T20:00:25.264Z,0.67
2022-12-19T20:02:53.016Z,0.66
2022-12-19T20:05:19.747Z,0.67
2022-12-19T20:07:46.363Z,0.52
2022-12-19T20:10:12.967Z,0.79
2022-12-19T20:12:39.547Z,0.62
2022-12-19T20:15:06.606Z,0.86
2022-12-19T20:17:33.120Z,0.63
2022-12-19T20:19:59.710Z,0.59
2022-12-19T20:22:26.332Z,0.63
2022-12-19T20:24:53.926Z,0.61
2022-12-19T20:27:20.566Z,0.52
2022-12-19T20:29:46.952Z,0.55
2022-12-19T20:32:15.004Z,0.64
2022-12-19T20:34:41.486Z,0.81
2022-12-19T20:37:08.027Z,0.69
2022-12-19T20:39:34.600Z,0.56
2022-12-19T20:42:01.130Z,0.60
2022-12-19T20:44:29.007Z,0.70
2022-12-19T20:46:55.574Z,0.61
2022-12-19T20:49:23.430Z,0.60
2022-12-19T20:51:50.048Z,0.56
2022-12-19T20:54:16.789Z,0.72
2022-12-19T20:56:43.231Z,0.66
2022-12-19T20:59:10.365Z,0.60
2022-12-19T21:01:37.606Z,0.57
2022-12-19T21:04:05.166Z,0.61
2022-12-19T21:06:31.901Z,0.71
2022-12-19T21:08:58.417Z,0.64
2022-12-19T21:11:26.538Z,0.60
2022-12-19T21:13:53.318Z,0.51
2022-12-19T21:16:22.106Z,0.66
2022-12-19T21:18:50.957Z,0.48
2022-12-19T21:21:20.898Z,0.58
2022-12-19T21:23:47.505Z,0.52
2022-12-19T21:26:14.126Z,0.51
2022-12-19T21:28:40.777Z,0.68
2022-12-19T21:31:20.023Z,0.63
2022-12-19T21:33:47.888Z,0.58
2022-12-19T21:36:20.341Z,0.50
2022-12-19T21:38:49.013Z,0.52
2022-12-19T21:41:19.340Z,0.42
2022-12-19T21:43:47.596Z,0.32
2022-12-19T21:46:16.036Z,0.49
2022-12-19T21:48:44.845Z,0.59
2022-12-19T21:51:12.626Z,0.71
2022-12-19T21:53:39.877Z,0.61
2022-12-19T21:56:15.326Z,0.70
2022-12-19T21:58:41.792Z,0.56
2022-12-19T22:01:11.186Z,0.51
2022-12-19T22:03:39.038Z,0.47
2022-12-19T22:06:08.775Z,0.71
2022-12-19T22:08:36.387Z,0.58
2022-12-19T22:11:03.044Z,0.37
2022-12-19T22:13:30.111Z,0.53
2022-12-19T22:16:01.734Z,0.50
2022-12-19T22:18:28.263Z,0.45
2022-12-19T22:21:01.075Z,0.42
2022-12-19T22:23:27.997Z,0.50
2022-12-19T22:26:07.024Z,0.52
2022-12-19T22:28:36.625Z,0.47
2022-12-19T22:31:04.287Z,0.49
2022-12-19T22:33:30.957Z,0.39
2022-12-19T22:35:57.426Z,0.47
2022-12-19T22:38:23.889Z,0.49
2022-12-19T22:40:50.458Z,0.42
2022-12-19T22:43:16.907Z,0.52
2022-12-19T22:45:43.389Z,0.48
2022-12-19T22:48:09.899Z,0.49
2022-12-19T22:50:36.749Z,0.59
2022-12-19T22:53:05.923Z,0.44
2022-12-19T22:55:34.725Z,0.46
2022-12-19T22:58:01.641Z,0.47
2022-12-19T23:00:28.143Z,0.70
2022-12-19T23:02:54.725Z,0.55
2022-12-19T23:05:21.356Z,0.63
2022-12-19T23:07:47.912Z,0.62
2022-12-19T23:10:14.383Z,0.65
2022-12-19T23:12:41.064Z,0.55
2022-12-19T23:15:07.958Z,0.57
2022-12-19T23:17:34.542Z,0.55
2022-12-19T23:20:01.055Z,0.68
2022-12-19T23:22:27.817Z,0.61
2022-12-19T23:24:54.338Z,0.52
2022-12-19T23:27:20.796Z,0.59
2022-12-19T23:29:49.301Z,0.47
2022-12-19T23:32:16.090Z,0.64
2022-12-19T23:34:42.778Z,0.60
2022-12-19T23:37:11.113Z,0.69
2022-12-19T23:39:38.242Z,0.53
2022-12-19T23:42:04.807Z,0.66
2022-12-19T23:44:31.405Z,0.64
2022-12-19T23:47:03.012Z,0.62
2022-12-19T23:49:30.246Z,0.59
2022-12-19T23:51:56.834Z,0.53
2022-12-19T23:54:23.320Z,0.66
2022-12-19T23:56:49.851Z,0.54
2022-12-19T23:59:16.333Z,0.69
